sensor_id;sensor_type;location;lat;lon;timestamp;P1;durP1;ratioP1;P2;durP2;ratioP2
13483;SDS011;6814;57.786;12.080;2023-10-13T00:01:18;16.47;;;3.37;;
13483;SDS011;6814;57.786;12.080;2023-10-13T00:03:45;11.27;;;2.20;;
13483;SDS011;6814;57.786;12.080;2023-10-13T00:06:12;14.00;;;2.77;;
13483;SDS011;6814;57.786;12.080;2023-10-13T00:08:39;11.50;;;3.30;;
13483;SDS011;6814;57.786;12.080;2023-10-13T00:11:10;11.33;;;2.30;;
13483;SDS011;6814;57.786;12.080;2023-10-13T00:13:37;13.57;;;2.57;;
13483;SDS011;6814;57.786;12.080;2023-10-13T00:16:15;15.00;;;2.70;;
13483;SDS011;6814;57.786;12.080;2023-10-13T00:18:46;15.20;;;3.10;;
13483;SDS011;6814;57.786;12.080;2023-10-13T00:21:13;12.87;;;2.60;;
13483;SDS011;6814;57.786;12.080;2023-10-13T00:23:43;13.90;;;2.80;;
13483;SDS011;6814;57.786;12.080;2023-10-13T00:26:17;13.07;;;3.40;;
13483;SDS011;6814;57.786;12.080;2023-10-13T00:28:43;14.17;;;2.67;;
13483;SDS011;6814;57.786;12.080;2023-10-13T00:31:11;12.63;;;2.70;;
13483;SDS011;6814;57.786;12.080;2023-10-13T00:33:39;12.50;;;2.80;;
13483;SDS011;6814;57.786;12.080;2023-10-13T00:36:07;12.97;;;2.30;;
13483;SDS011;6814;57.786;12.080;2023-10-13T00:38:34;14.00;;;3.27;;
13483;SDS011;6814;57.786;12.080;2023-10-13T00:41:03;9.93;;;2.47;;
13483;SDS011;6814;57.786;12.080;2023-10-13T00:43:44;15.33;;;3.07;;
13483;SDS011;6814;57.786;12.080;2023-10-13T00:46:09;18.40;;;2.63;;
13483;SDS011;6814;57.786;12.080;2023-10-13T00:48:38;15.40;;;2.20;;
13483;SDS011;6814;57.786;12.080;2023-10-13T00:51:08;13.07;;;2.50;;
13483;SDS011;6814;57.786;12.080;2023-10-13T00:53:43;16.23;;;2.73;;
13483;SDS011;6814;57.786;12.080;2023-10-13T00:56:11;11.97;;;2.30;;
13483;SDS011;6814;57.786;12.080;2023-10-13T00:58:44;12.13;;;2.70;;
13483;SDS011;6814;57.786;12.080;2023-10-13T01:01:11;21.03;;;3.27;;
13483;SDS011;6814;57.786;12.080;2023-10-13T01:03:44;12.57;;;2.63;;
13483;SDS011;6814;57.786;12.080;2023-10-13T01:06:10;14.33;;;2.80;;
13483;SDS011;6814;57.786;12.080;2023-10-13T01:08:37;11.57;;;2.43;;
13483;SDS011;6814;57.786;12.080;2023-10-13T01:11:03;10.93;;;2.20;;
13483;SDS011;6814;57.786;12.080;2023-10-13T01:13:33;13.40;;;2.77;;
13483;SDS011;6814;57.786;12.080;2023-10-13T01:16:01;12.17;;;2.60;;
13483;SDS011;6814;57.786;12.080;2023-10-13T01:18:28;10.70;;;2.17;;
13483;SDS011;6814;57.786;12.080;2023-10-13T01:20:53;9.37;;;1.97;;
13483;SDS011;6814;57.786;12.080;2023-10-13T01:23:25;10.33;;;2.70;;
13483;SDS011;6814;57.786;12.080;2023-10-13T01:25:53;18.30;;;3.60;;
13483;SDS011;6814;57.786;12.080;2023-10-13T01:28:21;13.10;;;2.13;;
13483;SDS011;6814;57.786;12.080;2023-10-13T01:30:47;8.23;;;2.57;;
13483;SDS011;6814;57.786;12.080;2023-10-13T01:33:15;14.50;;;2.50;;
13483;SDS011;6814;57.786;12.080;2023-10-13T01:35:40;11.47;;;2.23;;
13483;SDS011;6814;57.786;12.080;2023-10-13T01:38:12;16.23;;;2.70;;
13483;SDS011;6814;57.786;12.080;2023-10-13T01:40:40;14.83;;;2.33;;
13483;SDS011;6814;57.786;12.080;2023-10-13T01:43:08;11.37;;;2.03;;
13483;SDS011;6814;57.786;12.080;2023-10-13T01:45:37;11.63;;;2.27;;
13483;SDS011;6814;57.786;12.080;2023-10-13T01:48:11;16.53;;;2.77;;
13483;SDS011;6814;57.786;12.080;2023-10-13T01:50:40;12.30;;;2.80;;
13483;SDS011;6814;57.786;12.080;2023-10-13T01:53:12;11.27;;;2.50;;
13483;SDS011;6814;57.786;12.080;2023-10-13T01:55:40;11.13;;;2.60;;
13483;SDS011;6814;57.786;12.080;2023-10-13T01:58:08;12.33;;;2.50;;
13483;SDS011;6814;57.786;12.080;2023-10-13T02:00:39;8.97;;;2.40;;
13483;SDS011;6814;57.786;12.080;2023-10-13T02:03:07;17.17;;;2.20;;
13483;SDS011;6814;57.786;12.080;2023-10-13T02:05:39;10.90;;;3.43;;
13483;SDS011;6814;57.786;12.080;2023-10-13T02:08:08;10.57;;;2.57;;
13483;SDS011;6814;57.786;12.080;2023-10-13T02:10:35;14.33;;;3.03;;
13483;SDS011;6814;57.786;12.080;2023-10-13T02:13:10;15.27;;;2.70;;
13483;SDS011;6814;57.786;12.080;2023-10-13T02:15:40;7.90;;;2.37;;
13483;SDS011;6814;57.786;12.080;2023-10-13T02:18:07;11.17;;;2.63;;
13483;SDS011;6814;57.786;12.080;2023-10-13T02:20:34;11.07;;;2.30;;
13483;SDS011;6814;57.786;12.080;2023-10-13T02:23:07;12.57;;;2.70;;
13483;SDS011;6814;57.786;12.080;2023-10-13T02:25:35;12.73;;;2.80;;
13483;SDS011;6814;57.786;12.080;2023-10-13T02:28:08;17.13;;;3.60;;
13483;SDS011;6814;57.786;12.080;2023-10-13T02:30:40;14.43;;;2.70;;
13483;SDS011;6814;57.786;12.080;2023-10-13T02:33:09;9.70;;;2.53;;
13483;SDS011;6814;57.786;12.080;2023-10-13T02:35:36;14.43;;;2.97;;
13483;SDS011;6814;57.786;12.080;2023-10-13T02:38:09;18.37;;;2.93;;
13483;SDS011;6814;57.786;12.080;2023-10-13T02:40:36;12.10;;;3.00;;
13483;SDS011;6814;57.786;12.080;2023-10-13T02:43:03;11.03;;;2.77;;
13483;SDS011;6814;57.786;12.080;2023-10-13T02:45:30;15.30;;;2.63;;
13483;SDS011;6814;57.786;12.080;2023-10-13T02:47:57;14.63;;;2.30;;
13483;SDS011;6814;57.786;12.080;2023-10-13T02:50:38;13.17;;;2.70;;
13483;SDS011;6814;57.786;12.080;2023-10-13T02:53:08;12.43;;;2.37;;
13483;SDS011;6814;57.786;12.080;2023-10-13T02:55:37;13.63;;;2.80;;
13483;SDS011;6814;57.786;12.080;2023-10-13T02:58:04;14.17;;;2.93;;
13483;SDS011;6814;57.786;12.080;2023-10-13T03:00:29;12.13;;;2.40;;
13483;SDS011;6814;57.786;12.080;2023-10-13T03:02:58;12.37;;;2.47;;
13483;SDS011;6814;57.786;12.080;2023-10-13T03:05:23;11.17;;;2.50;;
13483;SDS011;6814;57.786;12.080;2023-10-13T03:07:54;13.53;;;2.57;;
13483;SDS011;6814;57.786;12.080;2023-10-13T03:10:20;12.67;;;2.57;;
13483;SDS011;6814;57.786;12.080;2023-10-13T03:12:50;9.77;;;2.53;;
13483;SDS011;6814;57.786;12.080;2023-10-13T03:15:16;10.10;;;2.40;;
13483;SDS011;6814;57.786;12.080;2023-10-13T03:17:43;12.00;;;2.50;;
13483;SDS011;6814;57.786;12.080;2023-10-13T03:20:10;10.77;;;2.43;;
13483;SDS011;6814;57.786;12.080;2023-10-13T03:22:38;12.07;;;2.40;;
13483;SDS011;6814;57.786;12.080;2023-10-13T03:25:04;13.70;;;2.50;;
13483;SDS011;6814;57.786;12.080;2023-10-13T03:27:34;12.90;;;2.60;;
13483;SDS011;6814;57.786;12.080;2023-10-13T03:30:06;12.57;;;3.00;;
13483;SDS011;6814;57.786;12.080;2023-10-13T03:32:39;7.40;;;2.57;;
13483;SDS011;6814;57.786;12.080;2023-10-13T03:35:13;12.60;;;2.70;;
13483;SDS011;6814;57.786;12.080;2023-10-13T03:37:48;10.40;;;2.17;;
13483;SDS011;6814;57.786;12.080;2023-10-13T03:40:15;10.33;;;2.17;;
13483;SDS011;6814;57.786;12.080;2023-10-13T03:42:56;9.63;;;2.37;;
13483;SDS011;6814;57.786;12.080;2023-10-13T03:45:29;11.77;;;2.33;;
13483;SDS011;6814;57.786;12.080;2023-10-13T03:48:01;12.63;;;2.50;;
13483;SDS011;6814;57.786;12.080;2023-10-13T03:50:35;11.03;;;2.13;;
13483;SDS011;6814;57.786;12.080;2023-10-13T03:53:01;9.50;;;2.40;;
13483;SDS011;6814;57.786;12.080;2023-10-13T03:55:31;12.70;;;2.10;;
13483;SDS011;6814;57.786;12.080;2023-10-13T03:58:00;9.13;;;3.17;;
13483;SDS011;6814;57.786;12.080;2023-10-13T04:00:28;15.37;;;3.13;;
13483;SDS011;6814;57.786;12.080;2023-10-13T04:02:56;10.13;;;2.63;;
13483;SDS011;6814;57.786;12.080;2023-10-13T04:05:35;11.43;;;2.33;;
13483;SDS011;6814;57.786;12.080;2023-10-13T04:08:06;13.70;;;2.70;;
13483;SDS011;6814;57.786;12.080;2023-10-13T04:10:50;12.63;;;3.00;;
13483;SDS011;6814;57.786;12.080;2023-10-13T04:13:31;12.23;;;2.40;;
13483;SDS011;6814;57.786;12.080;2023-10-13T04:16:36;15.83;;;2.57;;
13483;SDS011;6814;57.786;12.080;2023-10-13T04:19:03;10.77;;;2.43;;
13483;SDS011;6814;57.786;12.080;2023-10-13T04:21:47;12.40;;;2.40;;
13483;SDS011;6814;57.786;12.080;2023-10-13T04:24:23;14.70;;;2.27;;
13483;SDS011;6814;57.786;12.080;2023-10-13T04:27:02;13.40;;;2.30;;
13483;SDS011;6814;57.786;12.080;2023-10-13T04:29:46;13.33;;;2.87;;
13483;SDS011;6814;57.786;12.080;2023-10-13T04:32:17;10.07;;;2.40;;
13483;SDS011;6814;57.786;12.080;2023-10-13T04:34:54;12.37;;;2.57;;
13483;SDS011;6814;57.786;12.080;2023-10-13T04:37:24;12.57;;;3.10;;
13483;SDS011;6814;57.786;12.080;2023-10-13T04:39:55;12.40;;;2.83;;
13483;SDS011;6814;57.786;12.080;2023-10-13T04:42:24;17.60;;;2.67;;
13483;SDS011;6814;57.786;12.080;2023-10-13T04:45:17;16.27;;;2.70;;
13483;SDS011;6814;57.786;12.080;2023-10-13T04:48:10;17.00;;;3.23;;
13483;SDS011;6814;57.786;12.080;2023-10-13T04:50:53;11.37;;;3.20;;
13483;SDS011;6814;57.786;12.080;2023-10-13T04:53:46;14.73;;;2.60;;
13483;SDS011;6814;57.786;12.080;2023-10-13T04:56:29;12.27;;;2.43;;
13483;SDS011;6814;57.786;12.080;2023-10-13T04:59:14;8.60;;;2.50;;
13483;SDS011;6814;57.786;12.080;2023-10-13T05:02:00;9.80;;;2.20;;
13483;SDS011;6814;57.786;12.080;2023-10-13T05:04:49;11.80;;;2.97;;
13483;SDS011;6814;57.786;12.080;2023-10-13T05:07:33;8.70;;;2.23;;
13483;SDS011;6814;57.786;12.080;2023-10-13T05:10:19;15.50;;;2.70;;
13483;SDS011;6814;57.786;12.080;2023-10-13T05:13:03;12.53;;;2.37;;
13483;SDS011;6814;57.786;12.080;2023-10-13T05:15:47;13.97;;;2.97;;
13483;SDS011;6814;57.786;12.080;2023-10-13T05:18:31;14.27;;;3.00;;
13483;SDS011;6814;57.786;12.080;2023-10-13T05:21:15;11.80;;;2.90;;
13483;SDS011;6814;57.786;12.080;2023-10-13T05:24:00;13.87;;;3.23;;
13483;SDS011;6814;57.786;12.080;2023-10-13T05:26:45;11.77;;;3.03;;
13483;SDS011;6814;57.786;12.080;2023-10-13T05:29:28;14.97;;;2.73;;
13483;SDS011;6814;57.786;12.080;2023-10-13T05:32:12;16.77;;;3.20;;
13483;SDS011;6814;57.786;12.080;2023-10-13T05:35:08;10.23;;;2.63;;
13483;SDS011;6814;57.786;12.080;2023-10-13T05:37:51;17.43;;;3.33;;
13483;SDS011;6814;57.786;12.080;2023-10-13T05:40:35;13.37;;;3.13;;
13483;SDS011;6814;57.786;12.080;2023-10-13T05:43:20;11.50;;;2.80;;
13483;SDS011;6814;57.786;12.080;2023-10-13T05:49:14;14.03;;;3.33;;
13483;SDS011;6814;57.786;12.080;2023-10-13T05:51:57;9.27;;;2.70;;
13483;SDS011;6814;57.786;12.080;2023-10-13T05:54:32;18.57;;;3.43;;
13483;SDS011;6814;57.786;12.080;2023-10-13T05:57:15;12.53;;;2.63;;
13483;SDS011;6814;57.786;12.080;2023-10-13T06:00:01;16.50;;;2.77;;
13483;SDS011;6814;57.786;12.080;2023-10-13T06:02:45;15.17;;;3.57;;
13483;SDS011;6814;57.786;12.080;2023-10-13T06:05:29;9.93;;;3.00;;
13483;SDS011;6814;57.786;12.080;2023-10-13T06:08:13;12.30;;;2.83;;
13483;SDS011;6814;57.786;12.080;2023-10-13T06:11:00;16.07;;;3.27;;
13483;SDS011;6814;57.786;12.080;2023-10-13T06:13:44;9.93;;;3.23;;
13483;SDS011;6814;57.786;12.080;2023-10-13T06:16:29;15.57;;;2.83;;
13483;SDS011;6814;57.786;12.080;2023-10-13T06:19:13;7.83;;;2.67;;
13483;SDS011;6814;57.786;12.080;2023-10-13T06:21:57;12.20;;;2.90;;
13483;SDS011;6814;57.786;12.080;2023-10-13T06:24:41;14.30;;;3.07;;
13483;SDS011;6814;57.786;12.080;2023-10-13T06:27:25;9.93;;;2.37;;
13483;SDS011;6814;57.786;12.080;2023-10-13T06:30:09;11.87;;;2.60;;
13483;SDS011;6814;57.786;12.080;2023-10-13T06:32:39;13.23;;;2.50;;
13483;SDS011;6814;57.786;12.080;2023-10-13T06:35:06;8.87;;;2.23;;
13483;SDS011;6814;57.786;12.080;2023-10-13T06:37:34;12.87;;;2.83;;
13483;SDS011;6814;57.786;12.080;2023-10-13T06:40:08;10.53;;;3.00;;
13483;SDS011;6814;57.786;12.080;2023-10-13T06:42:47;12.97;;;2.53;;
13483;SDS011;6814;57.786;12.080;2023-10-13T06:45:13;12.47;;;3.07;;
13483;SDS011;6814;57.786;12.080;2023-10-13T06:47:43;9.67;;;2.83;;
13483;SDS011;6814;57.786;12.080;2023-10-13T06:50:10;11.53;;;3.00;;
13483;SDS011;6814;57.786;12.080;2023-10-13T06:52:40;10.67;;;2.90;;
13483;SDS011;6814;57.786;12.080;2023-10-13T06:55:07;10.37;;;2.77;;
13483;SDS011;6814;57.786;12.080;2023-10-13T06:57:35;10.17;;;2.10;;
13483;SDS011;6814;57.786;12.080;2023-10-13T07:00:01;13.10;;;2.67;;
13483;SDS011;6814;57.786;12.080;2023-10-13T07:02:33;12.40;;;2.20;;
13483;SDS011;6814;57.786;12.080;2023-10-13T07:05:01;5.80;;;1.80;;
13483;SDS011;6814;57.786;12.080;2023-10-13T07:07:32;9.20;;;2.23;;
13483;SDS011;6814;57.786;12.080;2023-10-13T07:10:01;9.23;;;2.23;;
13483;SDS011;6814;57.786;12.080;2023-10-13T07:12:27;13.97;;;2.43;;
13483;SDS011;6814;57.786;12.080;2023-10-13T07:14:58;13.93;;;2.50;;
13483;SDS011;6814;57.786;12.080;2023-10-13T07:17:36;7.23;;;1.80;;
13483;SDS011;6814;57.786;12.080;2023-10-13T07:20:06;8.37;;;1.93;;
13483;SDS011;6814;57.786;12.080;2023-10-13T07:22:40;10.83;;;2.33;;
13483;SDS011;6814;57.786;12.080;2023-10-13T07:25:20;11.87;;;2.30;;
13483;SDS011;6814;57.786;12.080;2023-10-13T07:27:49;5.67;;;2.03;;
13483;SDS011;6814;57.786;12.080;2023-10-13T07:30:15;9.27;;;2.20;;
13483;SDS011;6814;57.786;12.080;2023-10-13T07:32:45;7.43;;;1.87;;
13483;SDS011;6814;57.786;12.080;2023-10-13T07:35:13;8.37;;;2.30;;
13483;SDS011;6814;57.786;12.080;2023-10-13T07:37:41;9.00;;;2.23;;
13483;SDS011;6814;57.786;12.080;2023-10-13T07:40:07;10.23;;;2.40;;
13483;SDS011;6814;57.786;12.080;2023-10-13T07:42:47;8.23;;;2.20;;
13483;SDS011;6814;57.786;12.080;2023-10-13T07:45:14;9.50;;;2.20;;
13483;SDS011;6814;57.786;12.080;2023-10-13T07:47:43;8.90;;;2.10;;
13483;SDS011;6814;57.786;12.080;2023-10-13T07:50:10;14.77;;;2.73;;
13483;SDS011;6814;57.786;12.080;2023-10-13T07:52:39;10.70;;;2.43;;
13483;SDS011;6814;57.786;12.080;2023-10-13T07:55:23;8.53;;;2.00;;
13483;SDS011;6814;57.786;12.080;2023-10-13T07:57:49;9.63;;;2.30;;
13483;SDS011;6814;57.786;12.080;2023-10-13T08:00:25;9.87;;;2.73;;
13483;SDS011;6814;57.786;12.080;2023-10-13T08:02:55;10.23;;;2.67;;
13483;SDS011;6814;57.786;12.080;2023-10-13T08:05:32;10.00;;;2.27;;
13483;SDS011;6814;57.786;12.080;2023-10-13T08:08:09;9.47;;;2.63;;
13483;SDS011;6814;57.786;12.080;2023-10-13T08:10:39;10.43;;;2.40;;
13483;SDS011;6814;57.786;12.080;2023-10-13T08:13:07;9.87;;;2.40;;
13483;SDS011;6814;57.786;12.080;2023-10-13T08:15:39;9.33;;;2.40;;
13483;SDS011;6814;57.786;12.080;2023-10-13T08:18:12;10.27;;;2.93;;
13483;SDS011;6814;57.786;12.080;2023-10-13T08:20:42;11.80;;;3.10;;
13483;SDS011;6814;57.786;12.080;2023-10-13T08:23:10;8.60;;;2.50;;
13483;SDS011;6814;57.786;12.080;2023-10-13T08:25:39;10.97;;;2.77;;
13483;SDS011;6814;57.786;12.080;2023-10-13T08:28:19;9.40;;;2.43;;
13483;SDS011;6814;57.786;12.080;2023-10-13T08:31:03;13.57;;;2.50;;
13483;SDS011;6814;57.786;12.080;2023-10-13T08:33:39;13.73;;;3.00;;
13483;SDS011;6814;57.786;12.080;2023-10-13T08:36:11;13.87;;;2.63;;
13483;SDS011;6814;57.786;12.080;2023-10-13T08:38:56;9.23;;;2.60;;
13483;SDS011;6814;57.786;12.080;2023-10-13T08:41:22;10.37;;;2.70;;
13483;SDS011;6814;57.786;12.080;2023-10-13T08:43:55;10.77;;;3.40;;
13483;SDS011;6814;57.786;12.080;2023-10-13T08:46:28;8.70;;;2.57;;
13483;SDS011;6814;57.786;12.080;2023-10-13T08:48:56;10.50;;;2.77;;
13483;SDS011;6814;57.786;12.080;2023-10-13T08:51:43;13.57;;;2.70;;
13483;SDS011;6814;57.786;12.080;2023-10-13T08:54:15;13.80;;;2.93;;
13483;SDS011;6814;57.786;12.080;2023-10-13T08:56:59;11.03;;;2.60;;
13483;SDS011;6814;57.786;12.080;2023-10-13T08:59:45;10.70;;;2.90;;
13483;SDS011;6814;57.786;12.080;2023-10-13T09:02:18;11.27;;;2.53;;
13483;SDS011;6814;57.786;12.080;2023-10-13T09:04:47;12.87;;;2.77;;
13483;SDS011;6814;57.786;12.080;2023-10-13T09:07:24;11.50;;;3.03;;
13483;SDS011;6814;57.786;12.080;2023-10-13T09:09:52;13.43;;;3.00;;
13483;SDS011;6814;57.786;12.080;2023-10-13T09:12:25;12.07;;;2.67;;
13483;SDS011;6814;57.786;12.080;2023-10-13T09:15:01;10.63;;;2.83;;
13483;SDS011;6814;57.786;12.080;2023-10-13T09:17:30;10.80;;;2.90;;
13483;SDS011;6814;57.786;12.080;2023-10-13T09:20:01;9.67;;;2.57;;
13483;SDS011;6814;57.786;12.080;2023-10-13T09:22:49;11.97;;;2.40;;
13483;SDS011;6814;57.786;12.080;2023-10-13T09:25:23;14.57;;;3.53;;
13483;SDS011;6814;57.786;12.080;2023-10-13T09:27:49;12.80;;;2.63;;
13483;SDS011;6814;57.786;12.080;2023-10-13T09:30:18;13.67;;;3.13;;
13483;SDS011;6814;57.786;12.080;2023-10-13T09:32:46;8.50;;;2.50;;
13483;SDS011;6814;57.786;12.080;2023-10-13T09:35:12;12.83;;;3.20;;
13483;SDS011;6814;57.786;12.080;2023-10-13T09:37:44;13.80;;;2.87;;
13483;SDS011;6814;57.786;12.080;2023-10-13T09:40:13;11.47;;;2.50;;
13483;SDS011;6814;57.786;12.080;2023-10-13T09:42:52;12.87;;;3.03;;
13483;SDS011;6814;57.786;12.080;2023-10-13T09:45:23;11.93;;;3.20;;
13483;SDS011;6814;57.786;12.080;2023-10-13T09:47:52;9.17;;;2.63;;
13483;SDS011;6814;57.786;12.080;2023-10-13T09:50:22;13.53;;;3.07;;
13483;SDS011;6814;57.786;12.080;2023-10-13T09:52:49;11.30;;;3.03;;
13483;SDS011;6814;57.786;12.080;2023-10-13T09:55:19;11.40;;;2.60;;
13483;SDS011;6814;57.786;12.080;2023-10-13T09:57:47;9.47;;;2.60;;
13483;SDS011;6814;57.786;12.080;2023-10-13T10:00:23;10.27;;;2.40;;
13483;SDS011;6814;57.786;12.080;2023-10-13T10:03:08;8.60;;;2.40;;
13483;SDS011;6814;57.786;12.080;2023-10-13T10:05:59;9.03;;;2.73;;
13483;SDS011;6814;57.786;12.080;2023-10-13T10:08:38;11.77;;;3.10;;
13483;SDS011;6814;57.786;12.080;2023-10-13T10:11:24;11.10;;;2.43;;
13483;SDS011;6814;57.786;12.080;2023-10-13T10:13:56;13.33;;;2.70;;
13483;SDS011;6814;57.786;12.080;2023-10-13T10:16:29;11.83;;;2.70;;
13483;SDS011;6814;57.786;12.080;2023-10-13T10:19:01;10.40;;;2.30;;
13483;SDS011;6814;57.786;12.080;2023-10-13T10:21:32;11.67;;;2.57;;
13483;SDS011;6814;57.786;12.080;2023-10-13T10:24:00;10.13;;;2.37;;
13483;SDS011;6814;57.786;12.080;2023-10-13T10:26:38;15.70;;;3.20;;
13483;SDS011;6814;57.786;12.080;2023-10-13T10:29:10;10.57;;;2.30;;
13483;SDS011;6814;57.786;12.080;2023-10-13T10:31:40;10.90;;;2.50;;
13483;SDS011;6814;57.786;12.080;2023-10-13T10:34:11;10.97;;;2.83;;
13483;SDS011;6814;57.786;12.080;2023-10-13T10:36:38;12.73;;;2.60;;
13483;SDS011;6814;57.786;12.080;2023-10-13T10:39:08;9.50;;;2.80;;
13483;SDS011;6814;57.786;12.080;2023-10-13T10:41:37;17.27;;;2.80;;
13483;SDS011;6814;57.786;12.080;2023-10-13T10:44:10;10.90;;;2.60;;
13483;SDS011;6814;57.786;12.080;2023-10-13T10:46:43;14.17;;;3.03;;
13483;SDS011;6814;57.786;12.080;2023-10-13T10:49:22;9.33;;;2.40;;
13483;SDS011;6814;57.786;12.080;2023-10-13T10:51:55;12.90;;;3.23;;
13483;SDS011;6814;57.786;12.080;2023-10-13T10:54:26;10.47;;;2.83;;
13483;SDS011;6814;57.786;12.080;2023-10-13T10:56:56;8.17;;;2.30;;
13483;SDS011;6814;57.786;12.080;2023-10-13T10:59:35;8.00;;;2.40;;
13483;SDS011;6814;57.786;12.080;2023-10-13T11:02:04;12.33;;;2.80;;
13483;SDS011;6814;57.786;12.080;2023-10-13T11:04:31;9.67;;;1.97;;
13483;SDS011;6814;57.786;12.080;2023-10-13T11:07:00;8.80;;;2.63;;
13483;SDS011;6814;57.786;12.080;2023-10-13T11:09:28;8.67;;;2.00;;
13483;SDS011;6814;57.786;12.080;2023-10-13T11:12:11;9.50;;;2.57;;
13483;SDS011;6814;57.786;12.080;2023-10-13T11:14:41;12.80;;;2.73;;
13483;SDS011;6814;57.786;12.080;2023-10-13T11:17:18;14.23;;;3.53;;
13483;SDS011;6814;57.786;12.080;2023-10-13T11:19:54;10.50;;;2.90;;
13483;SDS011;6814;57.786;12.080;2023-10-13T11:22:21;7.90;;;2.47;;
13483;SDS011;6814;57.786;12.080;2023-10-13T11:24:59;10.10;;;2.73;;
13483;SDS011;6814;57.786;12.080;2023-10-13T11:27:34;10.77;;;2.77;;
13483;SDS011;6814;57.786;12.080;2023-10-13T11:30:14;10.17;;;2.77;;
13483;SDS011;6814;57.786;12.080;2023-10-13T11:32:56;7.97;;;1.90;;
13483;SDS011;6814;57.786;12.080;2023-10-13T11:35:22;8.80;;;2.30;;
13483;SDS011;6814;57.786;12.080;2023-10-13T11:37:50;8.57;;;2.63;;
13483;SDS011;6814;57.786;12.080;2023-10-13T11:40:21;11.90;;;2.73;;
13483;SDS011;6814;57.786;12.080;2023-10-13T11:43:08;7.20;;;2.20;;
13483;SDS011;6814;57.786;12.080;2023-10-13T11:45:38;12.13;;;2.40;;
13483;SDS011;6814;57.786;12.080;2023-10-13T11:48:19;9.60;;;2.07;;
13483;SDS011;6814;57.786;12.080;2023-10-13T11:50:59;8.83;;;2.73;;
13483;SDS011;6814;57.786;12.080;2023-10-13T11:53:25;11.67;;;2.33;;
13483;SDS011;6814;57.786;12.080;2023-10-13T11:55:54;10.80;;;2.23;;
13483;SDS011;6814;57.786;12.080;2023-10-13T11:58:20;8.70;;;2.70;;
13483;SDS011;6814;57.786;12.080;2023-10-13T12:00:46;8.50;;;2.53;;
13483;SDS011;6814;57.786;12.080;2023-10-13T12:03:34;9.47;;;2.43;;
13483;SDS011;6814;57.786;12.080;2023-10-13T12:06:18;5.23;;;1.93;;
13483;SDS011;6814;57.786;12.080;2023-10-13T12:08:57;9.03;;;2.67;;
13483;SDS011;6814;57.786;12.080;2023-10-13T12:11:36;3.43;;;1.70;;
13483;SDS011;6814;57.786;12.080;2023-10-13T12:14:04;5.87;;;1.90;;
13483;SDS011;6814;57.786;12.080;2023-10-13T12:16:42;5.60;;;1.77;;
13483;SDS011;6814;57.786;12.080;2023-10-13T12:19:09;7.60;;;1.90;;
13483;SDS011;6814;57.786;12.080;2023-10-13T12:21:36;5.57;;;2.10;;
13483;SDS011;6814;57.786;12.080;2023-10-13T12:24:03;6.77;;;1.70;;
13483;SDS011;6814;57.786;12.080;2023-10-13T12:26:36;7.37;;;1.77;;
13483;SDS011;6814;57.786;12.080;2023-10-13T12:29:06;8.40;;;2.23;;
13483;SDS011;6814;57.786;12.080;2023-10-13T12:31:44;4.47;;;1.70;;
13483;SDS011;6814;57.786;12.080;2023-10-13T12:34:18;3.37;;;1.50;;
13483;SDS011;6814;57.786;12.080;2023-10-13T12:37:05;4.90;;;1.60;;
13483;SDS011;6814;57.786;12.080;2023-10-13T12:39:49;4.57;;;1.50;;
13483;SDS011;6814;57.786;12.080;2023-10-13T12:42:33;3.90;;;1.40;;
13483;SDS011;6814;57.786;12.080;2023-10-13T12:45:17;3.67;;;1.50;;
13483;SDS011;6814;57.786;12.080;2023-10-13T12:48:01;5.47;;;1.30;;
13483;SDS011;6814;57.786;12.080;2023-10-13T12:50:46;5.20;;;1.40;;
13483;SDS011;6814;57.786;12.080;2023-10-13T12:53:32;4.63;;;1.40;;
13483;SDS011;6814;57.786;12.080;2023-10-13T12:55:58;3.57;;;1.10;;
13483;SDS011;6814;57.786;12.080;2023-10-13T12:58:28;1.83;;;0.90;;
13483;SDS011;6814;57.786;12.080;2023-10-13T13:00:59;3.17;;;1.00;;
13483;SDS011;6814;57.786;12.080;2023-10-13T13:03:31;4.43;;;1.03;;
13483;SDS011;6814;57.786;12.080;2023-10-13T13:05:59;2.13;;;0.93;;
13483;SDS011;6814;57.786;12.080;2023-10-13T13:08:32;3.27;;;1.10;;
13483;SDS011;6814;57.786;12.080;2023-10-13T13:11:00;4.10;;;1.10;;
13483;SDS011;6814;57.786;12.080;2023-10-13T13:13:28;1.70;;;0.90;;
13483;SDS011;6814;57.786;12.080;2023-10-13T13:15:54;2.87;;;0.87;;
13483;SDS011;6814;57.786;12.080;2023-10-13T13:18:21;1.87;;;0.77;;
13483;SDS011;6814;57.786;12.080;2023-10-13T13:20:48;1.73;;;0.70;;
13483;SDS011;6814;57.786;12.080;2023-10-13T13:23:20;3.03;;;0.93;;
13483;SDS011;6814;57.786;12.080;2023-10-13T13:25:50;2.20;;;1.20;;
13483;SDS011;6814;57.786;12.080;2023-10-13T13:28:17;3.50;;;0.90;;
13483;SDS011;6814;57.786;12.080;2023-10-13T13:30:42;3.20;;;1.37;;
13483;SDS011;6814;57.786;12.080;2023-10-13T13:33:09;2.03;;;0.60;;
13483;SDS011;6814;57.786;12.080;2023-10-13T13:35:37;1.67;;;0.80;;
13483;SDS011;6814;57.786;12.080;2023-10-13T13:38:03;0.80;;;0.60;;
13483;SDS011;6814;57.786;12.080;2023-10-13T13:40:37;0.77;;;0.53;;
13483;SDS011;6814;57.786;12.080;2023-10-13T13:43:04;0.53;;;0.53;;
13483;SDS011;6814;57.786;12.080;2023-10-13T13:45:31;1.67;;;0.50;;
13483;SDS011;6814;57.786;12.080;2023-10-13T13:47:59;1.20;;;0.50;;
13483;SDS011;6814;57.786;12.080;2023-10-13T13:50:32;1.87;;;0.50;;
13483;SDS011;6814;57.786;12.080;2023-10-13T13:53:05;1.07;;;0.80;;
13483;SDS011;6814;57.786;12.080;2023-10-13T13:55:34;0.67;;;0.60;;
13483;SDS011;6814;57.786;12.080;2023-10-13T13:58:02;0.60;;;0.30;;
13483;SDS011;6814;57.786;12.080;2023-10-13T14:00:33;1.90;;;0.60;;
13483;SDS011;6814;57.786;12.080;2023-10-13T14:03:04;0.50;;;0.30;;
13483;SDS011;6814;57.786;12.080;2023-10-13T14:05:30;0.37;;;0.37;;
13483;SDS011;6814;57.786;12.080;2023-10-13T14:07:57;0.50;;;0.30;;
13483;SDS011;6814;57.786;12.080;2023-10-13T14:10:23;1.23;;;0.47;;
13483;SDS011;6814;57.786;12.080;2023-10-13T14:12:59;0.83;;;0.30;;
13483;SDS011;6814;57.786;12.080;2023-10-13T14:15:33;1.03;;;0.30;;
13483;SDS011;6814;57.786;12.080;2023-10-13T14:18:05;0.63;;;0.30;;
13483;SDS011;6814;57.786;12.080;2023-10-13T14:20:33;1.23;;;0.37;;
13483;SDS011;6814;57.786;12.080;2023-10-13T14:23:04;0.10;;;0.10;;
13483;SDS011;6814;57.786;12.080;2023-10-13T14:25:32;0.30;;;0.30;;
13483;SDS011;6814;57.786;12.080;2023-10-13T14:28:02;0.10;;;0.10;;
13483;SDS011;6814;57.786;12.080;2023-10-13T14:30:28;0.37;;;0.30;;
13483;SDS011;6814;57.786;12.080;2023-10-13T14:32:57;0.20;;;0.20;;
13483;SDS011;6814;57.786;12.080;2023-10-13T14:35:24;2.97;;;0.30;;
13483;SDS011;6814;57.786;12.080;2023-10-13T14:37:51;0.10;;;0.10;;
13483;SDS011;6814;57.786;12.080;2023-10-13T14:40:17;1.27;;;0.10;;
13483;SDS011;6814;57.786;12.080;2023-10-13T14:42:46;0.20;;;0.10;;
13483;SDS011;6814;57.786;12.080;2023-10-13T14:45:13;0.20;;;0.20;;
13483;SDS011;6814;57.786;12.080;2023-10-13T14:47:41;0.63;;;0.10;;
13483;SDS011;6814;57.786;12.080;2023-10-13T14:50:09;0.17;;;0.17;;
13483;SDS011;6814;57.786;12.080;2023-10-13T14:52:42;0.47;;;0.30;;
13483;SDS011;6814;57.786;12.080;2023-10-13T14:55:08;1.13;;;0.30;;
13483;SDS011;6814;57.786;12.080;2023-10-13T14:57:44;0.40;;;0.33;;
13483;SDS011;6814;57.786;12.080;2023-10-13T15:00:11;0.10;;;0.10;;
13483;SDS011;6814;57.786;12.080;2023-10-13T15:02:38;1.03;;;0.40;;
13483;SDS011;6814;57.786;12.080;2023-10-13T15:05:09;0.60;;;0.17;;
13483;SDS011;6814;57.786;12.080;2023-10-13T15:07:41;0.10;;;0.10;;
13483;SDS011;6814;57.786;12.080;2023-10-13T15:10:10;0.50;;;0.10;;
13483;SDS011;6814;57.786;12.080;2023-10-13T15:12:39;0.10;;;0.10;;
13483;SDS011;6814;57.786;12.080;2023-10-13T15:15:06;0.10;;;0.10;;
13483;SDS011;6814;57.786;12.080;2023-10-13T15:17:38;0.10;;;0.10;;